Startpagina
METAR-TAF:

METAR-TAF

Vliegvelden :

Funchal, Madeira, Portugal

Aeroporto da Madeira

breedte: 32-41-52N, lengte: 016-46-28W, hoogte: 59 m

Actueel weer

Dit bericht is 31 minuten geleden gemaakt, om 12:00 UTC
Wind 19 kt uit het zuidzuidwesten
Temperatuur 18°C
Vochtigheid 64%
Druk 1021 hPa
Zicht 10 km of meer
Weinig wolken op 1600 ft

METAR: LPMA 271200Z 20019KT 9999 FEW016 18/11 Q1021

Tijdstip: 13:31 (12:31 UTC)

Verwachting

Dit bericht is 1 uur en het 31 minuten geleden gemaakt, om 11:00 UTC
Verwachting geldig van 27 om 12 UTC tot 28 om 12 UTC
Wind 13 kt uit het zuidzuidwesten
Zicht 10 km of meer
Verspreide wolken op 1500 ft
Tijdelijke
van 27 om 12 UTC tot 28 om 12 UTC
Verspreide wolken op 1500 ft
Gebroken wolken op 3000 ft

TAF: LPMA 271100Z 2712/2812 21013KT 9999 SCT015 TEMPO 2712/2812 SCT015 BKN030

Waarnemingen en weersverwachtingen van meer dan 4000 vliegvelden (METAR en TAF).

De beschikbare stations zijn de gele en rode punten op de kaart.

Ga met uw muis naar het station om de naam te zien.

Klik dan om waarnemingen en weersverwachtingen te zien.

kaart wijzigen: klik op de groene knoppen met een zwart kruis om in te zoomen, op de groene knop met een streepje om uit te zoomen of op de groene pijlen voor aangrenzende kaarten.


METAR-TAF: